Time;durP1;ratioP1;P1;durP2;ratioP2;P2;SDS_P1;SDS_P2;PMS_P1;PMS_P2;Temp;Humidity;BMP_temperature;BMP_pressure;BME280_temperature;BME280_humidity;BME280_pressure;Samples;Min_cycle;Max_cycle;Signal;HPM_P1;HPM_P2
2023/03/22 00:00:11;;;;;;;13.55;3.08;;;;;;;9.90;100.00;100006.84;5119352;27;20023;-78
2023/03/22 00:02:37;;;;;;;19.10;2.30;;;;;;;9.92;100.00;100004.59;5105217;27;20039;-77
2023/03/22 00:05:03;;;;;;;22.33;3.00;;;;;;;9.94;100.00;100002.31;5086664;27;20033;-77
2023/03/22 00:07:28;;;;;;;19.92;2.75;;;;;;;9.94;100.00;100005.09;5120613;27;20143;-78
2023/03/22 00:09:54;;;;;;;19.30;3.17;;;;;;;9.94;100.00;100009.84;5099149;27;20057;-77
2023/03/22 00:12:19;;;;;;;20.60;2.78;;;;;;;9.98;100.00;99997.84;5100200;28;20042;-77
2023/03/22 00:14:45;;;;;;;16.83;2.42;;;;;;;9.97;100.00;100000.91;5084923;27;20015;-77
2023/03/22 00:17:10;;;;;;;17.35;2.53;;;;;;;10.00;100.00;99998.38;5120242;27;20019;-77
2023/03/22 00:19:36;;;;;;;17.88;2.80;;;;;;;10.01;100.00;100001.97;5120118;27;20027;-77
2023/03/22 00:22:02;;;;;;;15.55;2.67;;;;;;;10.01;100.00;99990.88;5085864;27;20088;-77
2023/03/22 00:24:27;;;;;;;19.33;3.05;;;;;;;10.03;100.00;99994.16;5079971;28;20519;-77
2023/03/22 00:26:53;;;;;;;21.10;2.92;;;;;;;10.02;100.00;99982.22;5061223;27;20084;-77
2023/03/22 00:29:21;;;;;;;20.15;2.90;;;;;;;10.04;100.00;99990.25;5102727;27;20479;-77
2023/03/22 00:31:47;;;;;;;19.05;2.45;;;;;;;10.05;100.00;99997.44;5086232;27;20438;-77
2023/03/22 00:34:13;;;;;;;18.55;3.03;;;;;;;10.05;100.00;99987.16;5086466;27;20498;-77
2023/03/22 00:36:38;;;;;;;19.20;2.53;;;;;;;10.04;100.00;99985.53;5082329;28;20020;-77
2023/03/22 00:39:04;;;;;;;12.77;1.98;;;;;;;10.04;100.00;99976.38;5098594;28;20027;-77
2023/03/22 00:41:29;;;;;;;17.55;1.90;;;;;;;10.06;100.00;99968.59;5073859;28;20031;-77
2023/03/22 00:43:55;;;;;;;20.55;2.42;;;;;;;10.09;100.00;99975.47;5068253;27;20403;-77
2023/03/22 00:46:20;;;;;;;16.98;2.53;;;;;;;10.08;100.00;99966.31;5082900;28;20391;-77
2023/03/22 00:48:46;;;;;;;19.23;2.60;;;;;;;10.10;100.00;99966.03;5085111;27;20478;-77
2023/03/22 00:51:12;;;;;;;17.63;2.15;;;;;;;10.10;100.00;99968.78;5072922;28;20395;-77
2023/03/22 00:53:38;;;;;;;17.02;2.50;;;;;;;10.11;100.00;99959.34;5063157;28;20061;-77
2023/03/22 00:56:04;;;;;;;14.38;2.30;;;;;;;10.11;100.00;99953.78;5073456;28;20036;-77
2023/03/22 00:58:30;;;;;;;15.27;2.08;;;;;;;10.10;100.00;99952.16;5072073;27;20025;-77
2023/03/22 01:00:55;;;;;;;18.63;2.38;;;;;;;10.12;100.00;99949.91;5086542;27;20023;-77
2023/03/22 01:03:21;;;;;;;12.82;2.15;;;;;;;10.11;100.00;99942.69;5086297;27;20076;-77
2023/03/22 01:05:48;;;;;;;20.63;2.72;;;;;;;10.13;100.00;99943.22;5065077;28;20034;-77
2023/03/22 01:08:13;;;;;;;16.13;2.08;;;;;;;10.14;100.00;99933.75;5067813;27;20050;-77
2023/03/22 01:10:39;;;;;;;16.95;2.28;;;;;;;10.13;100.00;99937.66;5085226;27;20020;-77
2023/03/22 01:13:05;;;;;;;16.98;1.95;;;;;;;10.14;100.00;99934.59;5080532;28;20471;-78
2023/03/22 01:15:30;;;;;;;15.82;2.22;;;;;;;10.12;100.00;99925.75;5077718;27;20027;-77
2023/03/22 01:17:56;;;;;;;15.90;2.38;;;;;;;10.12;100.00;99916.59;5118835;27;20023;-77
2023/03/22 01:20:21;;;;;;;11.88;2.03;;;;;;;10.15;100.00;99919.59;5102535;27;20108;-77
2023/03/22 01:22:47;;;;;;;17.85;1.98;;;;;;;10.12;100.00;99906.31;5081730;28;20077;-77
2023/03/22 01:25:12;;;;;;;13.23;2.13;;;;;;;10.15;100.00;99907.66;5091476;27;20023;-77
2023/03/22 01:27:38;;;;;;;14.43;2.00;;;;;;;10.15;100.00;99902.13;5102004;27;20534;-77
2023/03/22 01:30:04;;;;;;;15.73;2.15;;;;;;;10.16;100.00;99900.97;5098879;28;20027;-77
2023/03/22 01:32:30;;;;;;;16.77;2.25;;;;;;;10.16;100.00;99896.25;5084665;27;20106;-77
2023/03/22 01:34:55;;;;;;;17.58;2.03;;;;;;;10.13;100.00;99885.75;5099122;28;20080;-77
2023/03/22 01:37:24;;;;;;;14.07;2.20;;;;;;;10.16;100.00;99887.09;5081956;28;20019;-77
2023/03/22 01:39:49;;;;;;;20.00;2.35;;;;;;;10.17;100.00;99884.03;5069157;27;20027;-77
2023/03/22 01:42:15;;;;;;;14.98;1.90;;;;;;;10.17;100.00;99872.09;5101712;27;20031;-77
2023/03/22 01:44:42;;;;;;;22.10;2.22;;;;;;;10.19;100.00;99869.84;5081349;28;20028;-77
2023/03/22 01:47:09;;;;;;;16.35;1.63;;;;;;;10.16;100.00;99865.72;5082434;27;20039;-77
2023/03/22 01:49:35;;;;;;;13.85;1.95;;;;;;;10.18;100.00;99852.38;5077090;28;20523;-77
2023/03/22 01:52:12;;;;;;;17.08;2.10;;;;;;;10.19;100.00;99836.53;5073422;28;20054;-77
2023/03/22 01:54:41;;;;;;;10.27;1.63;;;;;;;10.19;100.00;99850.41;5077351;27;20027;-77
2023/03/22 01:57:07;;;;;;;16.27;1.95;;;;;;;10.19;100.00;99842.09;5097109;28;20073;-77
2023/03/22 01:59:33;;;;;;;19.25;2.05;;;;;;;10.21;100.00;99839.84;5101240;27;20027;-77
2023/03/22 02:01:59;;;;;;;17.65;2.03;;;;;;;10.19;100.00;99836.53;5084432;27;20035;-77
2023/03/22 02:04:24;;;;;;;13.15;1.95;;;;;;;10.21;100.00;99837.06;5064313;27;20023;-77
2023/03/22 02:06:53;;;;;;;15.65;1.95;;;;;;;10.19;100.00;99823.47;5101175;27;20035;-77
2023/03/22 02:09:20;;;;;;;18.23;2.33;;;;;;;10.20;100.00;99827.09;5097921;27;20020;-77
2023/03/22 02:11:50;;;;;;;17.92;2.92;;;;;;;10.20;100.00;99824.31;5067447;27;20034;-77
2023/03/22 02:14:46;;;;;;;15.35;2.40;;;;;;;10.20;100.00;99830.69;5071703;28;20054;-77
2023/03/22 02:17:50;;;;;;;18.88;2.72;;;;;;;10.21;100.00;99826.78;5097422;28;20034;-77
2023/03/22 02:20:27;;;;;;;16.75;2.60;;;;;;;10.20;100.00;99827.91;5126971;27;20096;-77
2023/03/22 02:23:31;;;;;;;13.07;2.30;;;;;;;10.22;100.00;99820.13;5099486;27;20049;-77
2023/03/22 02:26:30;;;;;;;20.55;2.20;;;;;;;10.23;100.00;99813.41;5117230;27;20127;-77
2023/03/22 02:29:11;;;;;;;15.82;1.98;;;;;;;10.21;100.00;99812.09;5117362;27;20111;-77
2023/03/22 02:32:09;;;;;;;22.88;2.83;;;;;;;10.23;100.00;99805.09;5073825;28;20035;-77
2023/03/22 02:35:01;;;;;;;17.83;2.28;;;;;;;10.24;100.00;99803.13;5044184;27;20103;-77
2023/03/22 02:37:52;;;;;;;14.82;1.70;;;;;;;10.25;100.00;99796.44;5117239;27;20024;-76
2023/03/22 02:40:20;;;;;;;12.52;1.92;;;;;;;10.26;100.00;99792.56;5099344;27;20526;-77
2023/03/22 02:42:59;;;;;;;16.92;2.10;;;;;;;10.26;100.00;99792.56;5105035;28;20080;-77
2023/03/22 02:45:31;;;;;;;11.95;2.30;;;;;;;10.28;100.00;99791.16;5097736;27;20063;-77
2023/03/22 02:48:07;;;;;;;18.08;2.13;;;;;;;10.31;100.00;99791.66;5100596;27;20054;-77
2023/03/22 02:50:52;;;;;;;14.15;2.00;;;;;;;10.27;100.00;99788.66;5116936;27;20114;-77
2023/03/22 02:53:19;;;;;;;23.27;2.10;;;;;;;10.25;100.00;99796.44;5098858;27;20046;-77
2023/03/22 02:55:53;;;;;;;16.20;2.28;;;;;;;10.26;100.00;99784.22;5116845;27;20035;-77
2023/03/22 02:58:28;;;;;;;18.45;2.28;;;;;;;10.25;100.00;99788.13;5098508;27;20066;-78
2023/03/22 03:00:59;;;;;;;20.77;2.28;;;;;;;10.28;100.00;99785.59;5080925;28;20109;-77
2023/03/22 03:03:25;;;;;;;17.08;2.90;;;;;;;10.28;100.00;99784.78;5083540;27;20109;-77
2023/03/22 03:06:07;;;;;;;13.23;1.92;;;;;;;10.23;100.00;99788.44;5099996;27;20027;-77
2023/03/22 03:08:32;;;;;;;15.73;2.00;;;;;;;10.25;100.00;99774.25;5075850;28;20040;-77
2023/03/22 03:10:58;;;;;;;15.85;2.40;;;;;;;10.24;100.00;99775.38;5094812;28;20653;-77
2023/03/22 03:13:23;;;;;;;15.13;2.15;;;;;;;10.23;100.00;99776.53;5063295;28;20020;-77
2023/03/22 03:15:51;;;;;;;19.50;1.90;;;;;;;10.19;100.00;99764.38;5078092;28;20031;-78
2023/03/22 03:18:57;;;;;;;13.55;2.00;;;;;;;10.18;100.00;99771.91;5063300;28;20024;-77
2023/03/22 03:21:41;;;;;;;12.98;2.00;;;;;;;10.15;100.00;99769.75;5087748;28;20106;-77
2023/03/22 03:24:15;;;;;;;13.85;2.80;;;;;;;10.14;100.00;99759.78;5083902;28;20027;-77
2023/03/22 03:26:59;;;;;;;16.05;2.63;;;;;;;10.13;100.00;99765.63;5118129;28;20444;-78
2023/03/22 03:29:36;;;;;;;23.20;2.90;;;;;;;10.13;100.00;99754.53;5092712;28;20102;-78
2023/03/22 03:32:10;;;;;;;10.93;2.42;;;;;;;10.13;100.00;99757.31;5113135;27;20079;-78
2023/03/22 03:34:51;;;;;;;16.58;2.15;;;;;;;10.09;100.00;99751.56;5100228;27;20610;-77
2023/03/22 03:37:21;;;;;;;15.85;2.22;;;;;;;10.11;100.00;99748.47;5082869;27;20031;-78
2023/03/22 03:39:51;;;;;;;19.58;2.03;;;;;;;10.10;100.00;99749.63;5103392;27;20042;-78
2023/03/22 03:42:17;;;;;;;12.25;1.98;;;;;;;10.07;100.00;99762.97;5074114;28;20035;-78
2023/03/22 03:44:42;;;;;;;15.95;1.90;;;;;;;10.09;100.00;99754.34;5074747;28;20088;-77
2023/03/22 03:47:08;;;;;;;22.63;2.25;;;;;;;10.09;100.00;99748.78;5098342;28;20040;-78
2023/03/22 03:49:33;;;;;;;20.77;2.63;;;;;;;10.07;100.00;99754.63;5086213;27;20031;-77
2023/03/22 03:51:59;;;;;;;17.73;2.30;;;;;;;10.07;100.00;99740.75;5103018;27;20027;-77
2023/03/22 03:54:25;;;;;;;13.85;2.15;;;;;;;10.04;100.00;99758.03;5066505;28;20023;-78
2023/03/22 03:56:50;;;;;;;14.65;2.28;;;;;;;10.05;100.00;99753.31;5099262;28;20079;-78
2023/03/22 03:59:17;;;;;;;13.02;1.85;;;;;;;10.02;100.00;99754.75;5083970;28;20023;-79
2023/03/22 04:01:51;;;;;;;14.10;2.33;;;;;;;10.06;100.00;99746.63;5100234;28;20484;-78
2023/03/22 04:04:25;;;;;;;11.70;1.77;;;;;;;10.04;100.00;99744.16;5104604;27;20026;-78
2023/03/22 04:06:58;;;;;;;16.05;2.33;;;;;;;10.06;100.00;99750.22;5070694;28;20024;-78
2023/03/22 04:09:23;;;;;;;;;;;;;;;10.05;100.00;99751.34;5086994;27;20053;-78
2023/03/22 04:11:49;;;;;;;20.92;2.28;;;;;;;10.05;100.00;99748.56;5120712;27;20419;-78
2023/03/22 04:14:14;;;;;;;13.88;1.83;;;;;;;10.04;100.00;99749.72;5120564;27;20035;-78
2023/03/22 04:16:40;;;;;;;15.88;1.80;;;;;;;10.05;100.00;99751.34;5120718;27;20023;-78
2023/03/22 04:19:05;;;;;;;20.10;2.78;;;;;;;10.04;100.00;99746.94;5069625;27;20023;-78
2023/03/22 04:21:31;;;;;;;23.45;3.08;;;;;;;10.04;100.00;99746.13;5103343;27;20039;-78
2023/03/22 04:23:56;;;;;;;13.80;2.00;;;;;;;10.03;100.00;99741.72;5085987;27;20027;-78
2023/03/22 04:26:22;;;;;;;18.60;2.55;;;;;;;10.04;100.00;99735.03;5082030;28;20081;-77
2023/03/22 04:28:47;;;;;;;16.73;3.33;;;;;;;10.05;100.00;99745.78;5067648;27;20027;-77
2023/03/22 04:31:13;;;;;;;17.20;2.53;;;;;;;10.01;100.00;99736.47;5079053;28;20424;-78
2023/03/22 04:33:39;;;;;;;17.75;2.33;;;;;;;10.00;100.00;99733.97;5095546;27;20027;-78
2023/03/22 04:36:14;;;;;;;20.98;2.33;;;;;;;10.01;100.00;99738.41;5085979;27;20023;-78
2023/03/22 04:38:41;;;;;;;16.40;2.60;;;;;;;10.01;100.00;99736.47;5085171;27;20019;-78
2023/03/22 04:41:07;;;;;;;11.68;1.92;;;;;;;10.00;100.00;99737.59;5087673;27;20087;-78
2023/03/22 04:43:33;;;;;;;18.08;2.58;;;;;;;10.03;100.00;99741.72;5124128;27;20470;-78
2023/03/22 04:46:02;;;;;;;16.23;2.20;;;;;;;10.01;100.00;99749.50;5082349;28;20550;-78
2023/03/22 04:48:28;;;;;;;18.77;2.53;;;;;;;10.03;100.00;99738.94;5064982;27;20032;-78
2023/03/22 04:50:54;;;;;;;12.65;2.13;;;;;;;10.01;100.00;99739.22;5068611;27;20035;-77
2023/03/22 04:53:25;;;;;;;15.43;1.80;;;;;;;10.02;100.00;99742.81;5093379;27;20476;-78
2023/03/22 04:55:52;;;;;;;20.20;2.80;;;;;;;10.01;100.00;99741.19;5098728;28;20031;-78
2023/03/22 04:58:20;;;;;;;23.13;2.80;;;;;;;10.01;100.00;99742.00;5081662;27;20020;-77
2023/03/22 05:00:46;;;;;;;23.30;3.00;;;;;;;10.02;100.00;99742.81;5101369;27;20458;-78
2023/03/22 05:03:12;;;;;;;22.25;3.30;;;;;;;10.04;100.00;99748.91;5098885;28;20059;-78
2023/03/22 05:05:38;;;;;;;19.45;2.15;;;;;;;10.02;100.00;99738.09;5082872;28;20035;-78
2023/03/22 05:08:05;;;;;;;21.88;2.42;;;;;;;10.02;100.00;99749.19;5101982;27;20023;-78
2023/03/22 05:10:31;;;;;;;21.33;2.53;;;;;;;10.02;100.00;99743.63;5084964;27;20434;-78
2023/03/22 05:12:56;;;;;;;20.77;2.50;;;;;;;10.03;100.00;99744.50;5119125;27;20043;-78
2023/03/22 05:15:22;;;;;;;20.25;2.60;;;;;;;10.03;100.00;99741.72;5084963;27;20035;-78
2023/03/22 05:17:47;;;;;;;19.17;2.42;;;;;;;10.04;100.00;99740.56;5118403;27;20426;-78
2023/03/22 05:20:13;;;;;;;17.83;2.30;;;;;;;10.02;100.00;99732.53;5064610;28;20027;-78
2023/03/22 05:22:39;;;;;;;22.08;2.80;;;;;;;10.04;100.00;99729.47;5065589;27;20027;-78
2023/03/22 05:25:06;;;;;;;17.38;2.70;;;;;;;10.03;100.00;99727.84;5084521;27;20026;-79
2023/03/22 05:27:33;;;;;;;18.55;2.72;;;;;;;10.03;100.00;99728.66;5067760;27;20072;-78
2023/03/22 05:29:59;;;;;;;20.73;2.95;;;;;;;10.09;100.00;99731.34;5085407;27;20038;-78
2023/03/22 05:32:27;;;;;;;20.17;2.47;;;;;;;10.06;100.00;99732.78;5101061;27;20101;-78
2023/03/22 05:34:54;;;;;;;22.10;2.60;;;;;;;10.04;100.00;99727.53;5098245;28;20030;-79
2023/03/22 05:37:19;;;;;;;21.77;2.75;;;;;;;10.04;100.00;99729.47;5061065;28;20027;-79
2023/03/22 05:39:45;;;;;;;13.18;2.22;;;;;;;10.04;100.00;99724.75;5081109;28;20027;-78
2023/03/22 05:42:11;;;;;;;17.85;2.50;;;;;;;10.05;100.00;99726.38;5088961;28;20036;-78
2023/03/22 05:44:36;;;;;;;19.08;3.05;;;;;;;10.07;100.00;99720.53;5093986;28;20051;-78
2023/03/22 05:47:02;;;;;;;17.88;2.22;;;;;;;10.07;100.00;99709.44;5074320;28;20071;-78
2023/03/22 05:49:27;;;;;;;20.58;2.28;;;;;;;10.07;100.00;99704.69;5064937;28;20024;-78
2023/03/22 05:51:53;;;;;;;17.85;2.60;;;;;;;10.07;100.00;99704.69;5077912;28;20416;-78
2023/03/22 05:54:18;;;;;;;15.93;2.38;;;;;;;10.08;100.00;99705.50;5055683;28;20024;-78
2023/03/22 05:56:44;;;;;;;19.13;2.45;;;;;;;10.08;100.00;99705.50;5060785;28;20508;-78
2023/03/22 05:59:10;;;;;;;15.70;2.25;;;;;;;10.06;100.00;99703.06;5071869;28;20019;-78
2023/03/22 06:01:35;;;;;;;17.10;2.75;;;;;;;10.10;100.00;99694.13;5044670;28;20030;-78
2023/03/22 06:04:01;;;;;;;20.23;2.50;;;;;;;10.07;100.00;99690.00;5056109;28;20031;-78
2023/03/22 06:06:27;;;;;;;16.13;2.35;;;;;;;10.07;100.00;99701.94;5060943;28;20687;-79
2023/03/22 06:08:52;;;;;;;17.08;2.40;;;;;;;10.06;100.00;99697.53;5047479;28;20039;-78
2023/03/22 06:11:18;;;;;;;20.55;2.35;;;;;;;10.08;100.00;99688.88;5047073;28;20114;-78
2023/03/22 06:13:43;;;;;;;19.98;3.17;;;;;;;10.07;100.00;99690.00;5080238;28;20088;-79
2023/03/22 06:16:09;;;;;;;15.35;2.63;;;;;;;10.09;100.00;99689.72;5097393;28;20040;-78
2023/03/22 06:18:35;;;;;;;13.45;2.25;;;;;;;10.10;100.00;99677.47;5060256;28;20032;-79
2023/03/22 06:21:00;;;;;;;20.60;2.35;;;;;;;10.11;100.00;99673.56;5044807;28;20016;-78
2023/03/22 06:23:26;;;;;;;16.13;2.78;;;;;;;10.10;100.00;99680.25;5063882;28;20020;-78
2023/03/22 06:25:51;;;;;;;16.77;2.22;;;;;;;10.11;100.00;99673.56;5080052;28;20019;-78
2023/03/22 06:28:17;;;;;;;19.02;2.92;;;;;;;10.11;100.00;99690.19;5076821;28;20039;-78
2023/03/22 06:30:42;;;;;;;17.95;2.13;;;;;;;10.12;100.00;99698.22;5076249;28;20035;-79
2023/03/22 06:33:07;;;;;;;14.63;1.83;;;;;;;10.10;100.00;99705.22;5069028;28;20412;-79
2023/03/22 06:35:33;;;;;;;20.75;2.35;;;;;;;10.10;100.00;99721.88;5063253;28;20034;-78
2023/03/22 06:37:59;;;;;;;20.05;2.80;;;;;;;10.09;100.00;99728.56;5059977;28;20030;-78
2023/03/22 06:40:25;;;;;;;15.32;2.22;;;;;;;10.11;100.00;99729.84;5062069;28;20102;-79
2023/03/22 06:42:50;;;;;;;16.70;2.17;;;;;;;10.11;100.00;99735.41;5059715;28;20032;-78
2023/03/22 06:45:16;;;;;;;17.73;2.45;;;;;;;10.11;100.00;99751.25;5075785;28;20035;-78
2023/03/22 06:47:42;;;;;;;16.33;2.33;;;;;;;10.13;100.00;99755.34;5079805;28;20047;-78
2023/03/22 06:50:09;;;;;;;16.60;2.20;;;;;;;10.13;100.00;99754.53;5062005;28;20035;-79
2023/03/22 06:52:34;;;;;;;21.35;2.60;;;;;;;10.16;100.00;99745.59;5068559;28;20022;-79
2023/03/22 06:55:00;;;;;;;14.05;2.53;;;;;;;10.14;100.00;99733.97;5080383;28;20035;-79
2023/03/22 06:57:25;;;;;;;12.30;2.33;;;;;;;10.16;100.00;99737.25;5062071;28;20024;-79
2023/03/22 06:59:51;;;;;;;15.48;2.60;;;;;;;10.17;100.00;99734.19;5063230;28;20705;-78
2023/03/22 07:02:16;;;;;;;11.40;2.05;;;;;;;10.15;100.00;99741.19;5075462;28;20411;-78
2023/03/22 07:04:42;;;;;;;14.15;3.03;;;;;;;10.16;100.00;99721.44;5079163;28;20034;-78
2023/03/22 07:07:07;;;;;;;12.90;1.90;;;;;;;10.19;100.00;99720.00;5082326;27;20031;-78
2023/03/22 07:09:33;;;;;;;14.55;2.58;;;;;;;10.16;100.00;99726.97;5067033;28;20519;-79
2023/03/22 07:11:58;;;;;;;20.75;2.58;;;;;;;10.18;100.00;99723.91;5046855;28;20026;-78
2023/03/22 07:14:24;;;;;;;15.38;2.83;;;;;;;10.17;100.00;99739.75;5097076;28;20027;-78
2023/03/22 07:16:49;;;;;;;12.75;1.75;;;;;;;10.19;100.00;99736.63;5070780;28;20044;-78
2023/03/22 07:19:17;;;;;;;13.05;2.38;;;;;;;10.20;100.00;99729.97;5059616;28;20024;-78
2023/03/22 07:21:42;;;;;;;13.98;1.98;;;;;;;10.22;100.00;99736.03;5047767;28;20027;-79
2023/03/22 07:24:10;;;;;;;14.43;2.20;;;;;;;10.22;100.00;99738.78;5080592;28;20031;-78
2023/03/22 07:26:37;;;;;;;12.63;2.45;;;;;;;10.23;100.00;99729.34;5073376;28;20024;-78
2023/03/22 07:29:02;;;;;;;14.00;1.60;;;;;;;10.23;100.00;99732.94;5058547;28;20024;-76
2023/03/22 07:31:28;;;;;;;11.85;1.70;;;;;;;10.24;100.00;99731.00;5052822;28;20070;-78
2023/03/22 07:33:53;;;;;;;12.23;2.03;;;;;;;10.26;100.00;99725.97;5080107;28;20138;-78
2023/03/22 07:36:24;;;;;;;12.18;1.60;;;;;;;10.27;100.00;99716.53;5080312;28;20030;-78
2023/03/22 07:38:50;;;;;;;9.98;1.70;;;;;;;10.32;100.00;99723.91;5078531;28;20095;-78
2023/03/22 07:41:16;;;;;;;12.38;1.92;;;;;;;10.28;100.00;99724.53;5069016;28;20024;-78
2023/03/22 07:43:42;;;;;;;12.98;2.10;;;;;;;10.33;100.00;99728.31;5079718;28;20543;-78
2023/03/22 07:46:07;;;;;;;10.43;1.85;;;;;;;10.29;100.00;99717.84;5063371;28;20031;-78
2023/03/22 07:48:33;;;;;;;8.10;1.92;;;;;;;10.32;100.00;99716.41;5062989;28;20051;-78
2023/03/22 07:50:58;;;;;;;11.30;1.60;;;;;;;10.35;100.00;99734.41;5063398;28;20024;-78
2023/03/22 07:53:24;;;;;;;11.75;2.05;;;;;;;10.35;100.00;99724.13;5054434;28;20059;-78
2023/03/22 07:55:50;;;;;;;9.57;1.60;;;;;;;10.37;100.00;99726.59;5048633;28;20078;-78
2023/03/22 07:58:15;;;;;;;12.20;1.38;;;;;;;10.40;100.00;99725.97;5058245;28;20024;-78
2023/03/22 08:00:41;;;;;;;10.52;1.60;;;;;;;10.42;100.00;99732.84;5063523;28;20027;-78
2023/03/22 08:03:06;;;;;;;10.48;1.75;;;;;;;10.43;100.00;99731.69;5080212;28;20036;-78
2023/03/22 08:05:32;;;;;;;6.35;1.25;;;;;;;10.44;100.00;99732.53;5049562;28;20054;-78
2023/03/22 08:07:57;;;;;;;7.60;1.58;;;;;;;10.44;100.00;99732.53;5092665;28;20039;-77
2023/03/22 08:10:23;;;;;;;8.93;1.17;;;;;;;10.46;100.00;99733.84;5061214;28;20031;-78
2023/03/22 08:12:48;;;;;;;7.40;1.30;;;;;;;10.47;100.00;99732.72;5058802;28;20020;-78
2023/03/22 08:15:14;;;;;;;6.95;1.30;;;;;;;10.51;100.00;99716.25;5076510;28;20142;-78
2023/03/22 08:17:39;;;;;;;8.48;1.83;;;;;;;10.54;100.00;99720.38;5065949;28;20506;-78
2023/03/22 08:20:07;;;;;;;7.20;1.13;;;;;;;10.57;100.00;99714.19;5065492;28;20042;-78
2023/03/22 08:22:35;;;;;;;10.77;1.80;;;;;;;10.58;100.00;99713.03;5100471;28;20027;-78
2023/03/22 08:25:01;;;;;;;9.52;1.30;;;;;;;10.63;100.00;99707.38;5046850;28;20024;-78
2023/03/22 08:27:26;;;;;;;9.35;1.20;;;;;;;10.65;100.00;99710.66;5062826;28;20020;-78
2023/03/22 08:29:52;;;;;;;10.95;1.63;;;;;;;10.69;100.00;99706.94;5063363;28;20085;-78
2023/03/22 08:32:17;;;;;;;13.10;1.60;;;;;;;10.69;100.00;99701.38;5078876;28;20362;-77
2023/03/22 08:34:43;;;;;;;9.93;1.58;;;;;;;10.73;100.00;99696.84;5046410;28;20024;-78
2023/03/22 08:37:09;;;;;;;9.02;1.48;;;;;;;10.78;100.00;99704.25;5064542;28;20040;-78
2023/03/22 08:39:35;;;;;;;12.75;1.75;;;;;;;10.80;100.00;99698.38;5082934;28;20095;-77
2023/03/22 08:42:00;;;;;;;13.27;2.17;;;;;;;10.84;100.00;99697.44;5074538;27;20046;-78
2023/03/22 08:44:26;;;;;;;12.90;2.05;;;;;;;10.87;100.00;99699.56;5083027;28;20032;-77
2023/03/22 08:46:52;;;;;;;11.50;2.15;;;;;;;10.88;100.00;99703.16;5066497;27;20079;-77
2023/03/22 08:49:17;;;;;;;10.63;1.70;;;;;;;10.94;100.00;99713.00;5063273;28;20034;-77
2023/03/22 08:51:43;;;;;;;10.32;1.80;;;;;;;10.97;100.00;99695.69;5044262;28;20020;-77
2023/03/22 08:54:09;;;;;;;12.00;2.55;;;;;;;11.00;100.00;99702.59;5074149;28;20034;-77
2023/03/22 08:56:36;;;;;;;17.80;2.30;;;;;;;11.04;100.00;99706.38;5046292;28;20028;-78
2023/03/22 08:59:06;;;;;;;13.00;2.13;;;;;;;11.04;100.00;99698.06;5055964;28;20376;-77
2023/03/22 09:01:31;;;;;;;15.63;2.10;;;;;;;11.09;100.00;99709.84;5082242;28;20039;-77
2023/03/22 09:03:57;;;;;;;11.38;2.25;;;;;;;11.12;100.00;99700.06;5076167;27;20035;-78
2023/03/22 09:06:24;;;;;;;15.35;2.25;;;;;;;11.15;100.00;99700.25;5085786;28;20020;-77
2023/03/22 09:08:51;;;;;;;14.02;2.25;;;;;;;11.17;100.00;99697.13;5061864;28;20028;-77
2023/03/22 09:11:16;;;;;;;16.83;2.47;;;;;;;11.22;100.00;99702.56;5065522;28;20515;-77
2023/03/22 09:13:42;;;;;;;13.10;2.13;;;;;;;11.25;100.00;99695.53;5095813;28;20055;-78
2023/03/22 09:16:08;;;;;;;18.50;2.63;;;;;;;11.30;100.00;99692.63;5045203;28;20039;-78
2023/03/22 09:18:34;;;;;;;14.48;2.65;;;;;;;11.30;100.00;99674.00;5069427;27;20083;-77
2023/03/22 09:21:00;;;;;;;19.48;2.42;;;;;;;11.38;100.00;99694.66;5072248;27;20084;-77
2023/03/22 09:23:26;;;;;;;17.80;2.65;;;;;;;11.43;100.00;99691.72;5048954;28;20028;-77
2023/03/22 09:25:51;;;;;;;15.32;2.30;;;;;;;11.49;100.00;99697.97;5078425;28;20038;-77
2023/03/22 09:28:17;;;;;;;12.70;1.75;;;;;;;11.57;100.00;99686.06;5060553;28;20523;-77
2023/03/22 09:30:43;;;;;;;12.80;2.10;;;;;;;11.64;100.00;99686.41;5064775;27;20040;-78
2023/03/22 09:33:09;;;;;;;17.10;2.63;;;;;;;11.74;100.00;99691.69;5051154;28;20488;-78
2023/03/22 09:35:38;;;;;;;15.77;2.53;;;;;;;11.81;100.00;99707.91;5055129;28;20032;-77
2023/03/22 09:38:05;;;;;;;14.52;2.30;;;;;;;11.89;100.00;99679.31;5062418;28;20020;-77
2023/03/22 09:40:31;;;;;;;14.02;2.10;;;;;;;12.01;100.00;99675.94;5064809;28;20110;-78
2023/03/22 09:43:00;;;;;;;14.80;2.25;;;;;;;12.08;100.00;99685.44;5070931;28;20224;-77
2023/03/22 09:45:39;;;;;;;15.88;2.58;;;;;;;12.20;100.00;99676.47;5085677;27;20027;-78
2023/03/22 09:48:10;;;;;;;15.63;1.95;;;;;;;12.27;100.00;99671.22;5069118;28;20047;-78
2023/03/22 09:50:35;;;;;;;14.00;2.90;;;;;;;12.34;100.00;99689.41;5076861;28;20112;-77
2023/03/22 09:53:01;;;;;;;15.98;2.80;;;;;;;12.41;100.00;99675.81;5073662;28;20023;-78
2023/03/22 09:55:35;;;;;;;14.77;2.65;;;;;;;12.44;100.00;99683.53;5061543;28;20031;-78
2023/03/22 09:58:16;;;;;;;14.65;2.10;;;;;;;12.46;100.00;99681.25;5073775;28;20103;-78
2023/03/22 10:00:44;;;;;;;15.23;2.65;;;;;;;12.49;100.00;99689.75;5091562;28;20027;-77
2023/03/22 10:03:16;;;;;;;14.27;2.75;;;;;;;12.48;100.00;99681.72;5084819;27;20031;-77
2023/03/22 10:05:49;;;;;;;16.48;2.58;;;;;;;12.54;100.00;99688.78;5083752;28;20028;-77
2023/03/22 10:08:29;;;;;;;19.80;3.25;;;;;;;12.55;100.00;99686.81;5086832;28;20111;-78
2023/03/22 10:10:56;;;;;;;17.23;3.10;;;;;;;12.56;100.00;99686.47;5064697;28;20032;-77
2023/03/22 10:13:28;;;;;;;16.77;2.63;;;;;;;12.55;100.00;99695.16;5055715;27;20039;-78
2023/03/22 10:15:59;;;;;;;17.13;2.50;;;;;;;12.54;100.00;99697.13;5105395;28;20045;-78
2023/03/22 10:18:35;;;;;;;14.20;2.38;;;;;;;12.52;100.00;99683.53;5078221;28;20645;-78
2023/03/22 10:21:05;;;;;;;17.02;2.22;;;;;;;12.54;100.00;99680.44;5080031;27;20023;-77
2023/03/22 10:23:41;;;;;;;17.63;2.35;;;;;;;12.51;100.00;99678.31;5084520;27;20034;-78
2023/03/22 10:26:07;;;;;;;23.38;2.60;;;;;;;12.53;100.00;99684.34;5075540;28;20036;-78
2023/03/22 10:28:43;;;;;;;22.05;3.13;;;;;;;12.55;100.00;99676.47;5065703;28;20036;-78
2023/03/22 10:31:13;;;;;;;13.02;2.55;;;;;;;12.50;100.00;99673.84;5048635;28;20020;-78
2023/03/22 10:33:48;;;;;;;11.88;2.40;;;;;;;12.47;100.00;99661.41;5074340;28;20522;-78
2023/03/22 10:36:15;;;;;;;7.88;2.33;;;;;;;12.47;100.00;99671.72;5083651;28;20030;-78
2023/03/22 10:38:49;;;;;;;9.93;2.28;;;;;;;12.48;100.00;99665.00;5064070;28;20100;-78
2023/03/22 10:41:18;;;;;;;15.05;2.33;;;;;;;12.45;100.00;99671.22;5080631;28;20027;-78
2023/03/22 10:43:44;;;;;;;9.18;2.10;;;;;;;12.46;100.00;99678.44;5084130;27;20068;-78
2023/03/22 10:46:32;;;;;;;14.75;2.03;;;;;;;12.45;100.00;99665.66;5070992;28;20044;-78
2023/03/22 10:48:58;;;;;;;13.05;2.20;;;;;;;12.46;100.00;99653.41;5070913;27;20043;-78
2023/03/22 10:51:30;;;;;;;10.30;2.05;;;;;;;12.45;100.00;99662.88;5067785;28;20119;-78
2023/03/22 10:53:57;;;;;;;8.48;1.60;;;;;;;12.44;100.00;99658.47;5073047;28;20035;-78
2023/03/22 10:56:22;;;;;;;6.32;1.60;;;;;;;12.44;100.00;99667.63;5058362;27;20024;-78
2023/03/22 10:58:51;;;;;;;9.88;1.65;;;;;;;12.45;100.00;99655.38;5034880;28;20020;-78
2023/03/22 11:01:35;;;;;;;8.10;1.83;;;;;;;12.44;100.00;99670.41;5071555;28;20024;-78
2023/03/22 11:04:12;;;;;;;9.77;2.05;;;;;;;12.43;100.00;99660.44;5062403;28;20032;-78
2023/03/22 11:06:39;;;;;;;7.50;1.80;;;;;;;12.43;100.00;99659.63;5084827;28;20162;-78
2023/03/22 11:09:15;;;;;;;10.25;1.63;;;;;;;12.45;100.00;99654.53;5061899;28;20163;-78
2023/03/22 11:11:56;;;;;;;8.13;1.75;;;;;;;12.42;100.00;99658.78;5060500;28;20031;-79
2023/03/22 11:14:30;;;;;;;5.60;1.73;;;;;;;12.43;100.00;99648.47;5045950;28;20043;-78
2023/03/22 11:17:05;;;;;;;10.00;1.88;;;;;;;12.42;100.00;99650.41;5077310;28;20020;-78
2023/03/22 11:19:35;;;;;;;10.80;2.10;;;;;;;12.38;100.00;99655.03;5108396;28;20058;-78
2023/03/22 11:22:02;;;;;;;7.80;1.90;;;;;;;12.40;100.00;99663.06;5067726;28;20075;-78
2023/03/22 11:24:29;;;;;;;5.90;1.60;;;;;;;12.37;100.00;99658.97;5065766;28;20322;-78